Time;durP1;ratioP1;P1;durP2;ratioP2;P2;SDS_P1;SDS_P2;PMS_P1;PMS_P2;Temp;Humidity;BMP_temperature;BMP_pressure;BME280_temperature;BME280_humidity;BME280_pressure;Samples;Min_cycle;Max_cycle;Signal;HPM_P1;HPM_P2
2022/01/14 00:01:29;;;;;;;18.30;6.32;;;8.10;99.90;;;;;;5073960;28;20122;-82
2022/01/14 00:03:54;;;;;;;17.55;7.35;;;6.20;99.90;;;;;;5092127;28;20472;-82
2022/01/14 00:06:20;;;;;;;15.95;7.03;;;6.20;99.90;;;;;;5090548;28;20044;-82
2022/01/14 00:08:46;;;;;;;10.93;7.65;;;7.00;99.90;;;;;;5075751;28;20039;-81
2022/01/14 00:11:16;;;;;;;18.58;7.68;;;6.20;99.90;;;;;;5108521;28;20051;-81
2022/01/14 00:16:11;;;;;;;17.75;7.22;;;6.20;99.90;;;;;;5109545;28;20054;-82
2022/01/14 00:18:37;;;;;;;20.75;7.10;;;6.20;99.90;;;;;;5090290;28;20130;-81
2022/01/14 00:21:02;;;;;;;20.65;7.43;;;6.20;99.90;;;;;;5109241;28;20048;-81
2022/01/14 00:23:33;;;;;;;17.92;7.45;;;6.20;99.90;;;;;;5090673;28;20543;-81
2022/01/14 00:34:08;;;;;;;18.85;7.07;;;6.20;99.90;;;;;;5109194;28;20097;-81
2022/01/14 00:36:33;;;;;;;17.02;7.28;;;6.20;99.90;;;;;;5090336;28;20035;-81
2022/01/14 00:38:59;;;;;;;14.60;6.18;;;6.20;99.90;;;;;;5091551;28;20035;-82
2022/01/14 00:41:25;;;;;;;20.40;6.95;;;7.00;99.90;;;;;;5108045;28;20061;-81
2022/01/14 00:43:57;;;;;;;26.98;8.02;;;6.20;99.90;;;;;;5090529;28;20048;-82
2022/01/14 00:46:22;;;;;;;12.80;5.13;;;6.20;99.90;;;;;;5109002;28;20106;-82
2022/01/14 00:48:48;;;;;;;19.05;7.22;;;6.20;99.90;;;;;;5089731;28;20051;-82
2022/01/14 00:51:14;;;;;;;22.48;7.63;;;6.20;99.90;;;;;;5109053;28;20074;-82
2022/01/14 00:53:39;;;;;;;21.58;7.10;;;7.40;99.90;;;;;;5108637;28;20039;-81
2022/01/14 00:56:18;;;;;;;18.77;7.13;;;6.40;99.90;;;;;;5091747;28;20044;-81
2022/01/14 01:01:28;;;;;;;18.58;8.05;;;7.10;99.90;;;;;;5106449;28;20075;-81
2022/01/14 01:03:53;;;;;;;23.08;7.05;;;6.20;99.90;;;;;;5091681;28;20078;-82
2022/01/14 01:06:19;;;;;;;18.83;7.72;;;6.20;99.90;;;;;;5090004;28;20043;-82
2022/01/14 01:08:47;;;;;;;18.48;7.30;;;6.20;99.90;;;;;;5092435;28;20510;-82
2022/01/14 01:11:23;;;;;;;19.55;7.68;;;6.20;99.90;;;;;;5092419;28;20040;-82
2022/01/14 01:13:58;;;;;;;19.35;7.35;;;6.10;99.90;;;;;;5074014;28;20131;-83
2022/01/14 01:16:24;;;;;;;25.70;7.45;;;6.10;99.90;;;;;;5108870;28;20043;-82
2022/01/14 01:18:49;;;;;;;21.42;8.10;;;6.10;99.90;;;;;;5071967;28;20061;-82
2022/01/14 01:21:15;;;;;;;19.23;8.00;;;6.10;99.90;;;;;;5108309;28;20039;-82
2022/01/14 01:23:41;;;;;;;22.83;7.95;;;6.10;99.90;;;;;;5106996;28;20039;-82
2022/01/14 01:26:23;;;;;;;15.43;7.28;;;6.10;99.90;;;;;;5090104;28;20078;-82
2022/01/14 01:29:29;;;;;;;13.98;5.32;;;6.10;99.90;;;;;;5108509;28;20055;-82
2022/01/14 01:31:50;;;;;;;22.67;7.57;;;6.10;99.90;;;;;;5094155;28;20051;-82
2022/01/14 01:34:19;;;;;;;24.48;8.30;;;6.70;99.90;;;;;;5107642;28;20077;-82
2022/01/14 01:36:49;;;;;;;16.17;7.20;;;7.70;99.90;;;;;;5090090;28;20552;-82
2022/01/14 01:39:17;;;;;;;19.15;7.45;;;7.10;99.90;;;;;;5090121;28;21270;-83
2022/01/14 01:41:46;;;;;;;14.98;7.72;;;6.40;99.90;;;;;;5090299;28;20055;-82
2022/01/14 01:44:13;;;;;;;25.08;8.23;;;6.20;99.90;;;;;;5105499;28;20154;-82
2022/01/14 01:46:42;;;;;;;17.02;7.65;;;6.30;99.90;;;;;;5107823;28;20051;-82
2022/01/14 01:49:09;;;;;;;20.30;7.85;;;6.20;99.90;;;;;;5072115;28;20035;-82
2022/01/14 01:51:36;;;;;;;24.45;8.02;;;6.20;99.90;;;;;;5107224;28;20051;-82
2022/01/14 01:54:02;;;;;;;14.00;6.75;;;6.20;99.90;;;;;;5073011;28;20487;-82
2022/01/14 01:56:28;;;;;;;23.95;8.90;;;6.20;99.90;;;;;;5106253;28;20035;-82
2022/01/14 01:58:56;;;;;;;18.92;7.85;;;6.20;99.90;;;;;;5090563;28;20043;-82
2022/01/14 02:01:23;;;;;;;19.02;8.00;;;6.40;99.90;;;;;;5088211;28;20126;-82
2022/01/14 02:03:49;;;;;;;17.00;7.35;;;6.20;99.90;;;;;;5107370;28;20058;-82
2022/01/14 02:06:15;;;;;;;18.73;7.43;;;6.20;99.90;;;;;;5088370;28;20088;-82
2022/01/14 02:08:41;;;;;;;18.50;8.27;;;6.20;99.90;;;;;;5090156;28;20039;-82
2022/01/14 02:11:07;;;;;;;21.00;7.45;;;7.00;99.90;;;;;;5106136;28;20039;-82
2022/01/14 02:13:33;;;;;;;26.63;8.68;;;6.50;99.90;;;;;;5105930;28;20104;-82
2022/01/14 02:24:07;;;;;;;20.98;8.35;;;6.30;99.90;;;;;;5105745;28;20505;-81
2022/01/14 02:26:33;;;;;;;21.02;8.55;;;7.30;99.90;;;;;;5091196;28;20062;-81
2022/01/14 02:28:59;;;;;;;25.75;9.10;;;6.30;99.90;;;;;;5107023;28;20047;-81
2022/01/14 02:31:25;;;;;;;19.42;7.55;;;6.30;99.90;;;;;;5106566;28;20048;-82
2022/01/14 02:33:51;;;;;;;15.80;7.85;;;6.30;99.90;;;;;;5106968;28;20051;-81
2022/01/14 02:36:17;;;;;;;22.40;8.32;;;6.90;99.90;;;;;;5105369;28;20044;-82
2022/01/14 02:38:44;;;;;;;18.25;9.05;;;6.30;99.90;;;;;;5106525;28;20040;-82
2022/01/14 02:41:10;;;;;;;25.00;9.52;;;6.30;99.90;;;;;;5110290;28;20452;-82
2022/01/14 02:43:36;;;;;;;18.42;9.45;;;6.30;99.90;;;;;;5092398;28;20057;-82
2022/01/14 02:46:04;;;;;;;32.75;10.32;;;6.30;99.90;;;;;;5093162;28;20054;-82
2022/01/14 02:48:30;;;;;;;22.17;10.40;;;6.60;99.90;;;;;;5107893;28;20122;-82
2022/01/14 02:51:00;;;;;;;31.40;10.15;;;6.30;99.90;;;;;;5110334;28;20127;-82
2022/01/14 02:56:06;;;;;;;25.90;9.55;;;6.30;99.90;;;;;;5109388;28;20050;-82
2022/01/14 02:58:34;;;;;;;25.83;9.07;;;6.30;99.90;;;;;;5109995;28;20035;-82
2022/01/14 03:01:13;;;;;;;30.67;11.25;;;7.60;99.90;;;;;;5108332;28;20054;-82
2022/01/14 03:03:43;;;;;;;22.58;10.20;;;6.40;99.90;;;;;;5110654;28;20394;-83
2022/01/14 03:06:09;;;;;;;27.42;10.25;;;7.30;99.90;;;;;;5091226;28;20062;-82
2022/01/14 03:08:35;;;;;;;26.02;10.23;;;6.30;99.90;;;;;;5109872;28;20487;-82
2022/01/14 03:11:17;;;;;;;18.27;9.68;;;7.60;99.90;;;;;;5108938;28;20050;-82
2022/01/14 03:13:43;;;;;;;25.35;9.57;;;6.30;99.90;;;;;;5091422;28;20689;-82
2022/01/14 03:16:09;;;;;;;30.13;9.23;;;6.40;99.90;;;;;;5110152;28;20046;-83
2022/01/14 03:18:45;;;;;;;17.92;8.85;;;6.40;99.90;;;;;;5090856;28;20043;-81
2022/01/14 03:21:16;;;;;;;26.40;10.05;;;6.40;99.90;;;;;;5109871;28;20498;-82
2022/01/14 03:23:48;;;;;;;22.75;10.30;;;6.40;99.90;;;;;;5075451;28;20031;-82
2022/01/14 03:26:19;;;;;;;21.42;10.63;;;7.70;99.90;;;;;;5091792;28;20122;-82
2022/01/14 03:28:46;;;;;;;19.08;9.60;;;6.40;99.90;;;;;;5110123;28;20046;-82
2022/01/14 03:31:12;;;;;;;24.27;10.35;;;6.40;99.90;;;;;;5107798;28;20043;-82
2022/01/14 03:33:38;;;;;;;23.90;9.43;;;6.40;99.90;;;;;;5093413;28;20042;-82
2022/01/14 03:36:06;;;;;;;28.13;9.68;;;6.40;99.90;;;;;;5074220;28;20079;-82
2022/01/14 03:38:32;;;;;;;21.35;9.52;;;6.40;99.90;;;;;;5110837;27;20039;-82
2022/01/14 03:40:58;;;;;;;24.88;9.98;;;6.60;99.90;;;;;;5095529;27;20035;-81
2022/01/14 03:43:23;;;;;;;24.95;9.23;;;6.50;99.90;;;;;;5112932;27;20118;-82
2022/01/14 03:45:50;;;;;;;28.88;10.60;;;6.50;99.90;;;;;;5113799;27;20051;-82
2022/01/14 03:48:18;;;;;;;33.75;10.50;;;6.50;99.90;;;;;;5111442;27;20050;-82
2022/01/14 03:50:43;;;;;;;19.73;9.60;;;7.50;99.90;;;;;;5114156;27;20084;-82
2022/01/14 03:53:11;;;;;;;19.67;10.60;;;6.50;99.90;;;;;;5111386;27;20530;-81
2022/01/14 03:55:42;;;;;;;17.35;9.75;;;6.40;99.90;;;;;;5079937;27;20039;-81
2022/01/14 03:58:08;;;;;;;20.90;9.10;;;6.50;99.90;;;;;;5095628;27;20039;-82
2022/01/14 04:00:35;;;;;;;19.38;10.13;;;6.50;99.90;;;;;;5078134;27;20075;-82
2022/01/14 04:03:01;;;;;;;28.45;9.43;;;6.50;99.90;;;;;;5113205;27;20050;-82
2022/01/14 04:05:27;;;;;;;25.27;11.25;;;6.50;99.90;;;;;;5110721;27;20051;-82
2022/01/14 04:07:52;;;;;;;27.23;10.50;;;6.50;99.90;;;;;;5096221;27;20151;-82
2022/01/14 04:10:19;;;;;;;25.48;10.23;;;6.50;99.90;;;;;;5077517;27;20047;-82
2022/01/14 04:17:57;;;;;;;22.98;9.57;;;6.50;99.90;;;;;;5096591;27;20058;-82
2022/01/14 04:20:23;;;;;;;25.90;9.77;;;6.70;99.90;;;;;;5095890;27;20486;-82
2022/01/14 04:22:49;;;;;;;22.83;9.38;;;6.40;99.90;;;;;;5110494;27;20064;-82
2022/01/14 04:25:15;;;;;;;20.60;9.50;;;6.40;99.90;;;;;;5112812;27;20043;-82
2022/01/14 04:27:41;;;;;;;25.70;9.63;;;7.40;99.90;;;;;;5094281;27;20538;-82
2022/01/14 04:30:08;;;;;;;21.88;9.70;;;6.30;99.90;;;;;;5111812;27;20134;-82
2022/01/14 04:32:33;;;;;;;28.55;10.38;;;6.30;99.90;;;;;;5095255;27;20042;-82
2022/01/14 04:34:59;;;;;;;22.98;8.77;;;6.30;99.90;;;;;;5110752;27;20133;-82
2022/01/14 04:37:25;;;;;;;23.02;10.73;;;6.20;99.90;;;;;;5112444;27;20047;-82
2022/01/14 04:39:50;;;;;;;22.15;9.43;;;6.20;99.90;;;;;;5076233;27;20086;-82
2022/01/14 04:42:16;;;;;;;29.52;10.25;;;6.20;99.90;;;;;;5095500;27;20054;-82
2022/01/14 04:44:42;;;;;;;24.50;9.65;;;7.10;99.90;;;;;;5093700;27;20485;-82
2022/01/14 04:47:29;;;;;;;22.98;10.23;;;6.20;99.90;;;;;;5111696;27;20043;-82
2022/01/14 04:49:54;;;;;;;18.17;10.20;;;6.30;99.90;;;;;;5111844;27;20035;-82
2022/01/14 04:52:20;;;;;;;24.60;9.77;;;6.30;99.90;;;;;;5076275;27;20092;-82
2022/01/14 04:54:46;;;;;;;21.17;10.05;;;6.70;99.90;;;;;;5112219;27;20398;-82
2022/01/14 04:57:12;;;;;;;32.03;11.27;;;6.30;99.90;;;;;;5093596;27;20035;-83
2022/01/14 04:59:38;;;;;;;23.38;10.57;;;6.30;99.90;;;;;;5095582;27;20463;-82
2022/01/14 05:02:04;;;;;;;18.05;10.38;;;6.20;99.90;;;;;;5110908;27;20145;-82
2022/01/14 05:04:29;;;;;;;23.73;11.13;;;6.30;99.90;;;;;;5093895;27;20133;-82
2022/01/14 05:07:01;;;;;;;21.38;10.25;;;6.30;99.90;;;;;;5112145;27;20501;-83
2022/01/14 05:09:34;;;;;;;25.25;11.00;;;6.30;99.90;;;;;;5128656;27;20047;-82
2022/01/14 05:12:06;;;;;;;20.58;10.10;;;7.50;99.90;;;;;;5112276;27;20082;-82
2022/01/14 05:14:33;;;;;;;25.63;9.88;;;6.30;99.90;;;;;;5110060;27;20305;-82
2022/01/14 05:16:59;;;;;;;22.63;10.75;;;6.30;99.90;;;;;;5112069;27;20540;-82
2022/01/14 05:19:24;;;;;;;25.17;10.73;;;6.30;99.90;;;;;;5093859;27;20130;-83
2022/01/14 05:21:50;;;;;;;21.35;9.70;;;6.70;99.90;;;;;;5110155;27;20087;-83
2022/01/14 05:24:16;;;;;;;29.05;9.93;;;6.30;99.90;;;;;;5094696;27;20043;-82
2022/01/14 05:26:41;;;;;;;26.08;9.90;;;6.30;99.90;;;;;;5109525;27;20436;-83
2022/01/14 05:29:07;;;;;;;22.83;10.52;;;6.30;99.90;;;;;;5111781;27;20054;-83
2022/01/14 05:31:49;;;;;;;20.15;10.85;;;6.30;99.90;;;;;;5128235;27;20066;-83
2022/01/14 05:34:15;;;;;;;23.10;10.75;;;6.30;99.90;;;;;;5110964;27;20448;-83
2022/01/14 05:36:41;;;;;;;22.05;10.05;;;6.30;99.90;;;;;;5129389;27;20363;-82
2022/01/14 05:39:07;;;;;;;24.33;9.68;;;6.30;99.90;;;;;;5109537;27;20128;-83
2022/01/14 05:41:33;;;;;;;29.33;10.52;;;6.30;99.90;;;;;;5111184;27;20058;-83
2022/01/14 05:43:59;;;;;;;23.27;9.93;;;6.30;99.90;;;;;;5075170;27;20047;-83
2022/01/14 05:46:25;;;;;;;29.80;9.18;;;6.30;99.90;;;;;;5094135;27;20136;-83
2022/01/14 05:49:09;;;;;;;20.77;10.65;;;7.00;99.90;;;;;;5092364;27;20074;-83
2022/01/14 05:51:54;;;;;;;26.65;10.60;;;6.40;99.90;;;;;;5128113;27;20038;-83
2022/01/14 05:54:20;;;;;;;27.45;11.18;;;6.30;99.90;;;;;;5110954;27;20117;-83
2022/01/14 05:56:47;;;;;;;27.70;11.02;;;6.30;99.90;;;;;;5108694;27;20039;-84
2022/01/14 05:59:14;;;;;;;21.95;10.50;;;6.30;99.90;;;;;;5093993;27;20498;-84
2022/01/14 06:01:40;;;;;;;24.20;10.52;;;6.30;99.90;;;;;;5091182;28;20061;-83
2022/01/14 06:04:07;;;;;;;20.52;9.55;;;6.30;99.90;;;;;;5093375;27;20047;-84
2022/01/14 06:06:34;;;;;;;24.67;10.32;;;6.30;99.90;;;;;;5076329;27;20047;-83
2022/01/14 06:09:04;;;;;;;26.25;10.82;;;6.30;99.90;;;;;;5109200;27;20505;-83
2022/01/14 06:11:30;;;;;;;20.13;9.23;;;6.30;99.90;;;;;;5111199;27;20090;-83
2022/01/14 06:13:56;;;;;;;26.35;9.63;;;6.30;99.90;;;;;;5108827;27;20099;-83
2022/01/14 06:16:22;;;;;;;31.00;10.88;;;7.60;99.90;;;;;;5111203;27;20429;-83
2022/01/14 06:18:48;;;;;;;18.95;10.05;;;6.30;99.90;;;;;;5092297;27;20130;-84
2022/01/14 06:21:14;;;;;;;18.80;10.27;;;6.30;99.90;;;;;;5093377;27;20402;-84
2022/01/14 06:23:39;;;;;;;23.63;9.63;;;6.30;99.90;;;;;;5112104;27;20042;-88
2022/01/14 06:26:06;;;;;;;21.23;9.80;;;7.50;99.90;;;;;;5108934;27;20058;-84
2022/01/14 06:28:31;;;;;;;19.55;9.45;;;6.30;99.90;;;;;;5110663;27;20035;-84
2022/01/14 06:30:57;;;;;;;26.77;9.57;;;6.30;99.90;;;;;;5126652;27;20041;-85
2022/01/14 06:33:23;;;;;;;21.88;10.45;;;6.30;99.90;;;;;;5093631;27;20130;-85
2022/01/14 06:35:52;;;;;;;19.85;9.65;;;6.30;99.90;;;;;;5107926;28;20558;-85
2022/01/14 06:38:19;;;;;;;33.28;9.27;;;7.80;99.90;;;;;;5113390;28;20039;-85
2022/01/14 06:40:48;;;;;;;20.17;9.13;;;4.90;99.90;;;;;;5092820;28;20439;-85
2022/01/14 06:43:17;;;;;;;16.67;9.10;;;6.40;99.90;;;;;;5092356;28;20502;-83
2022/01/14 06:45:43;;;;;;;19.08;8.90;;;6.40;99.90;;;;;;5110858;28;20046;-83
2022/01/14 06:48:09;;;;;;;24.50;9.80;;;7.40;99.90;;;;;;5091252;28;20034;-81
2022/01/14 06:50:35;;;;;;;19.77;8.60;;;6.40;99.90;;;;;;5110278;28;20059;-81
2022/01/14 06:53:01;;;;;;;18.50;7.78;;;6.40;99.90;;;;;;5108822;28;20047;-82
2022/01/14 06:55:26;;;;;;;20.20;8.15;;;6.40;99.90;;;;;;5128778;28;20067;-82
2022/01/14 06:57:52;;;;;;;18.25;8.45;;;7.50;99.90;;;;;;5127899;28;20069;-82
2022/01/14 07:00:19;;;;;;;17.38;8.73;;;6.50;99.90;;;;;;5127880;28;20075;-81
2022/01/14 07:02:46;;;;;;;18.23;8.30;;;7.40;99.90;;;;;;5128850;28;20035;-82
2022/01/14 07:05:12;;;;;;;20.88;8.65;;;6.40;99.90;;;;;;5108297;28;20079;-82
2022/01/14 07:07:39;;;;;;;14.25;7.38;;;6.40;99.90;;;;;;5128973;28;20043;-81
2022/01/14 07:10:06;;;;;;;28.65;8.40;;;7.20;99.90;;;;;;5126512;28;20043;-82
2022/01/14 07:12:38;;;;;;;17.08;7.03;;;6.40;99.90;;;;;;5129794;27;20046;-82
2022/01/14 07:15:08;;;;;;;11.60;6.50;;;6.40;99.90;;;;;;5132096;27;20047;-82
2022/01/14 07:17:34;;;;;;;20.98;6.80;;;6.50;99.90;;;;;;5131321;27;20144;-81
2022/01/14 07:20:06;;;;;;;24.52;6.88;;;6.40;99.90;;;;;;5132907;27;20042;-81
2022/01/14 07:22:32;;;;;;;13.82;6.50;;;6.50;99.90;;;;;;5111791;27;20050;-84
2022/01/14 07:24:58;;;;;;;15.10;5.95;;;6.40;99.90;;;;;;5132820;27;20478;-83
2022/01/14 07:27:25;;;;;;;19.67;6.88;;;6.50;99.90;;;;;;5095469;27;20043;-83
2022/01/14 07:29:51;;;;;;;14.38;5.78;;;7.50;99.90;;;;;;5113414;27;20059;-83
2022/01/14 07:32:17;;;;;;;14.50;6.53;;;6.50;99.90;;;;;;5096645;27;20054;-83
2022/01/14 07:34:42;;;;;;;24.55;5.97;;;6.50;99.90;;;;;;5111990;27;20047;-83
2022/01/14 07:37:08;;;;;;;16.10;5.78;;;6.50;99.90;;;;;;5131632;27;20054;-83
2022/01/14 07:39:34;;;;;;;15.05;5.82;;;6.50;99.90;;;;;;5130108;27;20043;-82
2022/01/14 07:42:00;;;;;;;18.30;5.18;;;6.70;99.90;;;;;;5113073;27;20054;-82
2022/01/14 07:44:25;;;;;;;14.35;5.28;;;6.50;99.90;;;;;;5094569;27;20122;-82
2022/01/14 07:46:51;;;;;;;16.85;5.32;;;8.00;99.90;;;;;;5113259;27;20124;-82
2022/01/14 07:49:17;;;;;;;16.90;6.03;;;6.50;99.90;;;;;;5095777;27;20050;-82
2022/01/14 07:51:43;;;;;;;20.65;5.75;;;6.50;99.90;;;;;;5095411;27;20477;-82
2022/01/14 07:54:09;;;;;;;20.42;5.68;;;6.50;99.90;;;;;;5096072;27;20185;-82
2022/01/14 07:56:47;;;;;;;20.67;5.35;;;6.50;99.90;;;;;;5092986;27;20126;-82
2022/01/14 07:59:21;;;;;;;19.48;5.40;;;7.40;99.90;;;;;;5096393;27;20375;-82
2022/01/14 08:01:48;;;;;;;16.02;5.28;;;8.00;99.90;;;;;;5111821;27;20038;-80
2022/01/14 08:04:15;;;;;;;14.98;5.32;;;6.60;99.90;;;;;;5079052;27;20074;-80
2022/01/14 08:06:45;;;;;;;11.45;4.85;;;7.30;99.90;;;;;;5096033;27;20051;-82
2022/01/14 08:09:10;;;;;;;8.95;4.18;;;6.50;99.90;;;;;;5092725;27;20047;-83
2022/01/14 08:11:36;;;;;;;10.63;4.75;;;6.60;99.90;;;;;;5095734;27;20088;-83
2022/01/14 08:14:02;;;;;;;20.65;4.68;;;7.10;99.90;;;;;;5093820;27;20046;-83
2022/01/14 08:16:28;;;;;;;16.83;4.80;;;6.60;99.90;;;;;;5131533;27;20046;-82
2022/01/14 08:18:54;;;;;;;17.50;5.05;;;6.60;99.90;;;;;;5111792;27;20054;-82
2022/01/14 08:21:19;;;;;;;14.00;4.05;;;6.60;99.90;;;;;;5095511;27;20050;-83
2022/01/14 08:23:45;;;;;;;15.50;3.85;;;6.70;99.90;;;;;;5094742;28;20091;-82
2022/01/14 08:26:11;;;;;;;11.38;4.72;;;6.70;99.90;;;;;;5094237;27;20088;-81
2022/01/14 08:28:37;;;;;;;12.93;4.35;;;6.70;99.90;;;;;;5131399;27;20039;-83
2022/01/14 08:31:03;;;;;;;10.25;4.03;;;6.70;99.90;;;;;;5093853;27;20054;-84
2022/01/14 08:33:29;;;;;;;15.07;3.80;;;7.30;99.90;;;;;;5112342;27;20054;-84
2022/01/14 08:35:55;;;;;;;19.73;4.30;;;8.00;99.90;;;;;;5093933;27;20035;-83
2022/01/14 08:38:21;;;;;;;10.60;3.90;;;6.80;99.90;;;;;;5129406;27;20035;-84
2022/01/14 08:40:48;;;;;;;14.23;3.92;;;8.60;99.90;;;;;;5110556;27;20039;-83
2022/01/14 08:43:14;;;;;;;11.48;4.15;;;6.80;99.90;;;;;;5106176;28;20066;-83
2022/01/14 08:45:40;;;;;;;13.38;4.28;;;6.80;99.90;;;;;;5109093;28;20360;-83
2022/01/14 08:48:06;;;;;;;21.35;4.13;;;6.80;99.90;;;;;;5105879;28;20054;-83
2022/01/14 08:50:35;;;;;;;16.17;3.67;;;6.90;99.90;;;;;;5110065;28;20437;-82
2022/01/14 08:53:03;;;;;;;14.63;4.55;;;7.50;99.90;;;;;;5106298;28;20126;-82
2022/01/14 08:55:40;;;;;;;17.42;4.03;;;6.90;99.90;;;;;;5107784;28;20489;-82
2022/01/14 08:58:07;;;;;;;16.88;4.78;;;6.90;99.90;;;;;;5092743;28;20048;-82
2022/01/14 09:00:33;;;;;;;14.23;3.58;;;7.40;99.90;;;;;;5089551;28;20047;-82
2022/01/14 09:03:04;;;;;;;22.23;4.22;;;7.00;99.90;;;;;;5109202;28;20444;-82
2022/01/14 09:05:30;;;;;;;14.05;4.13;;;7.00;99.90;;;;;;5087675;28;20053;-82
2022/01/14 09:07:56;;;;;;;10.85;3.63;;;8.10;99.90;;;;;;5110385;28;20039;-82
2022/01/14 09:10:22;;;;;;;17.17;4.40;;;8.30;99.90;;;;;;5090061;28;20096;-82
2022/01/14 09:12:48;;;;;;;24.80;4.13;;;7.10;99.90;;;;;;5089866;28;20072;-83
2022/01/14 09:15:15;;;;;;;14.10;3.13;;;7.40;99.90;;;;;;5108149;28;20131;-82
2022/01/14 09:17:41;;;;;;;7.40;3.25;;;7.20;99.90;;;;;;5106660;28;20207;-82
2022/01/14 09:20:09;;;;;;;12.98;3.72;;;7.20;99.90;;;;;;5109571;28;20480;-82
2022/01/14 09:22:36;;;;;;;13.57;3.25;;;7.20;99.90;;;;;;5107670;28;20178;-82
2022/01/14 09:25:04;;;;;;;9.77;2.95;;;7.20;99.90;;;;;;5108361;28;20047;-82
2022/01/14 09:27:30;;;;;;;13.20;3.05;;;7.30;99.90;;;;;;5107770;28;20338;-81
2022/01/14 09:29:58;;;;;;;14.75;2.63;;;7.30;99.90;;;;;;5107047;28;20055;-81
2022/01/14 09:32:27;;;;;;;8.07;2.60;;;7.30;99.90;;;;;;5090483;28;20036;-82
2022/01/14 09:34:54;;;;;;;8.40;2.20;;;7.40;99.90;;;;;;5089144;28;20048;-81
2022/01/14 09:37:19;;;;;;;9.70;2.63;;;7.40;99.90;;;;;;5108828;28;20070;-81
2022/01/14 09:39:45;;;;;;;12.35;2.35;;;7.40;99.90;;;;;;5106227;28;20062;-82
2022/01/14 09:42:13;;;;;;;17.42;2.60;;;7.40;99.90;;;;;;5119737;27;20051;-82
2022/01/14 09:44:41;;;;;;;8.77;2.72;;;7.50;99.90;;;;;;5127666;27;20563;-82
2022/01/14 09:47:07;;;;;;;14.93;2.35;;;7.50;99.90;;;;;;5128621;27;20111;-82
2022/01/14 09:49:33;;;;;;;9.30;2.05;;;7.50;99.90;;;;;;5094539;27;20051;-82
2022/01/14 09:51:59;;;;;;;8.80;2.50;;;7.50;99.90;;;;;;5108447;27;20150;-82
2022/01/14 09:54:25;;;;;;;8.32;2.55;;;7.60;99.90;;;;;;5129951;27;20450;-82
2022/01/14 09:56:50;;;;;;;7.97;1.40;;;7.60;99.90;;;;;;5108745;27;20077;-81
2022/01/14 09:59:18;;;;;;;13.13;2.10;;;7.60;99.90;;;;;;5110861;27;20043;-82
2022/01/14 10:01:47;;;;;;;13.48;2.03;;;7.80;99.90;;;;;;5109979;27;20064;-81
2022/01/14 10:04:18;;;;;;;14.73;2.00;;;7.60;99.90;;;;;;5127804;27;20050;-81
2022/01/14 10:06:46;;;;;;;16.38;1.65;;;7.70;99.90;;;;;;5129256;27;20381;-82
2022/01/14 10:09:34;;;;;;;7.65;1.83;;;7.90;99.90;;;;;;5106759;27;20088;-82
2022/01/14 10:12:18;;;;;;;13.13;1.83;;;7.70;99.90;;;;;;5129575;27;20043;-83
2022/01/14 10:14:43;;;;;;;10.55;1.45;;;7.70;99.90;;;;;;5093191;27;20365;-83
2022/01/14 10:17:11;;;;;;;15.10;2.50;;;7.70;99.90;;;;;;5109066;27;20498;-83
2022/01/14 10:19:43;;;;;;;6.40;1.52;;;7.70;99.90;;;;;;5094123;27;20035;-83
2022/01/14 10:22:19;;;;;;;17.42;1.80;;;7.70;99.90;;;;;;5108735;27;20050;-83
2022/01/14 10:24:55;;;;;;;6.38;1.50;;;7.70;99.90;;;;;;5110977;27;20043;-82
2022/01/14 10:27:35;;;;;;;9.60;1.77;;;7.70;99.90;;;;;;5109950;27;20047;-83
2022/01/14 10:30:11;;;;;;;11.73;1.85;;;7.70;99.90;;;;;;5108925;27;20074;-82
2022/01/14 10:32:38;;;;;;;16.42;2.97;;;7.70;99.90;;;;;;5110725;27;20032;-82
2022/01/14 10:35:06;;;;;;;9.27;2.40;;;7.70;99.90;;;;;;5108095;27;20055;-82
2022/01/14 10:37:34;;;;;;;12.50;1.83;;;7.70;99.90;;;;;;5093962;27;20122;-83
2022/01/14 10:40:02;;;;;;;13.93;1.58;;;7.70;99.90;;;;;;5109311;27;20470;-82
2022/01/14 10:42:33;;;;;;;15.82;1.85;;;7.80;99.90;;;;;;5127809;27;20058;-83
2022/01/14 10:45:21;;;;;;;12.02;1.52;;;8.00;99.90;;;;;;5110434;28;20530;-83
2022/01/14 10:47:58;;;;;;;22.50;2.47;;;7.80;99.90;;;;;;5126425;27;20082;-82
2022/01/14 10:50:30;;;;;;;12.73;1.75;;;7.80;99.90;;;;;;5128792;28;20544;-82
2022/01/14 10:52:56;;;;;;;13.80;1.70;;;7.80;99.90;;;;;;5127798;28;20043;-82
2022/01/14 10:55:35;;;;;;;15.73;1.77;;;8.00;99.90;;;;;;5109169;28;20109;-82
2022/01/14 10:58:11;;;;;;;15.35;2.22;;;7.90;99.90;;;;;;5129068;28;20057;-82
2022/01/14 11:00:49;;;;;;;15.63;2.40;;;7.90;99.90;;;;;;5108968;28;20626;-82
2022/01/14 11:03:16;;;;;;;12.45;1.73;;;7.90;99.90;;;;;;5110668;28;20043;-81
2022/01/14 11:05:42;;;;;;;17.20;2.20;;;7.90;99.90;;;;;;5091647;28;20131;-82
2022/01/14 11:08:08;;;;;;;16.30;2.10;;;9.60;99.90;;;;;;5109136;28;20142;-83
2022/01/14 11:10:37;;;;;;;8.27;1.65;;;9.60;99.90;;;;;;5109734;28;20046;-82
2022/01/14 11:13:06;;;;;;;22.92;2.65;;;8.90;99.90;;;;;;5108407;28;20043;-83
2022/01/14 11:15:34;;;;;;;17.25;3.03;;;8.60;99.90;;;;;;5093309;28;20047;-82
2022/01/14 11:18:04;;;;;;;13.73;2.03;;;8.00;99.90;;;;;;5073806;28;20108;-82
2022/01/14 11:20:34;;;;;;;20.58;2.80;;;8.00;99.90;;;;;;5094201;28;20059;-82
2022/01/14 11:23:16;;;;;;;6.97;1.92;;;8.00;99.90;;;;;;5092320;28;20089;-83
2022/01/14 11:25:46;;;;;;;11.80;2.08;;;8.00;99.90;;;;;;5091408;28;20114;-83
2022/01/14 11:28:15;;;;;;;15.93;2.42;;;8.00;99.90;;;;;;5110491;28;20066;-82
2022/01/14 11:30:41;;;;;;;9.88;2.25;;;8.00;99.90;;;;;;5089210;28;20039;-82
2022/01/14 11:33:08;;;;;;;11.38;2.17;;;8.00;99.90;;;;;;5108412;28;20043;-82
2022/01/14 11:35:37;;;;;;;19.08;2.75;;;8.00;99.90;;;;;;5090320;28;20107;-82
2022/01/14 11:38:23;;;;;;;12.18;2.22;;;8.00;99.90;;;;;;5109302;28;20039;-82
2022/01/14 11:40:50;;;;;;;16.83;2.33;;;8.60;99.90;;;;;;5109694;28;20087;-82
2022/01/14 11:43:51;;;;;;;14.15;2.47;;;8.00;99.90;;;;;;5107450;28;20051;-82
2022/01/14 11:46:36;;;;;;;15.73;2.63;;;8.10;99.90;;;;;;5056522;28;20043;-82
2022/01/14 11:49:33;;;;;;;12.60;2.38;;;8.10;99.90;;;;;;5092754;28;20043;-82
2022/01/14 11:52:01;;;;;;;14.35;2.92;;;8.10;99.90;;;;;;5086101;28;20137;-82
2022/01/14 11:54:42;;;;;;;10.20;2.45;;;6.90;99.90;;;;;;5092389;28;20494;-82
2022/01/14 11:57:08;;;;;;;7.63;2.22;;;8.70;99.90;;;;;;5090365;28;20055;-82
2022/01/14 11:59:34;;;;;;;18.23;2.47;;;8.00;99.90;;;;;;5092683;27;20131;-82
2022/01/14 12:02:00;;;;;;;13.68;2.30;;;8.10;99.90;;;;;;5112657;27;20126;-83
2022/01/14 12:05:03;;;;;;;11.82;2.38;;;8.10;99.90;;;;;;5093661;27;20050;-83
2022/01/14 12:07:29;;;;;;;12.68;2.50;;;8.10;99.90;;;;;;5113505;27;20038;-83
2022/01/14 12:10:07;;;;;;;16.60;2.80;;;8.10;99.90;;;;;;5130131;27;20039;-81
2022/01/14 12:12:34;;;;;;;17.92;2.67;;;8.10;99.90;;;;;;5079022;27;20122;-83
2022/01/14 12:15:04;;;;;;;14.90;2.47;;;8.10;99.90;;;;;;5095992;27;20051;-81
2022/01/14 12:17:34;;;;;;;13.20;3.22;;;8.10;99.90;;;;;;5111594;27;20043;-82
2022/01/14 12:20:17;;;;;;;14.38;3.05;;;8.10;99.90;;;;;;5096516;27;20069;-82
2022/01/14 12:23:09;;;;;;;7.28;1.73;;;8.10;99.90;;;;;;5110997;27;20701;-83
2022/01/14 12:25:43;;;;;;;10.73;2.20;;;8.10;99.90;;;;;;5130238;27;20046;-83
2022/01/14 12:28:20;;;;;;;26.10;2.65;;;8.10;99.90;;;;;;5113201;27;20043;-83
2022/01/14 12:31:03;;;;;;;18.13;2.60;;;8.10;99.90;;;;;;5129377;27;20433;-83
2022/01/14 12:33:42;;;;;;;11.75;1.85;;;8.10;99.90;;;;;;5112594;27;20053;-83
2022/01/14 12:36:17;;;;;;;20.83;2.20;;;8.00;99.90;;;;;;5112572;27;20438;-83
2022/01/14 12:38:43;;;;;;;11.35;2.65;;;8.10;99.90;;;;;;5094028;27;20095;-84
2022/01/14 12:41:18;;;;;;;9.00;2.28;;;8.20;99.90;;;;;;5112476;27;20103;-83
2022/01/14 12:43:51;;;;;;;19.27;3.30;;;8.00;99.90;;;;;;5109880;27;20055;-83
2022/01/14 12:49:22;;;;;;;13.32;2.67;;;8.10;99.90;;;;;;5112008;27;20475;-83
2022/01/14 12:52:07;;;;;;;13.10;2.55;;;8.10;99.90;;;;;;5110365;27;20046;-83
2022/01/14 12:54:39;;;;;;;15.65;2.70;;;8.10;99.90;;;;;;5095190;27;20103;-84
2022/01/14 12:57:06;;;;;;;13.57;2.47;;;8.20;99.90;;;;;;5093964;27;20142;-83
2022/01/14 12:59:46;;;;;;;17.17;2.70;;;8.10;99.90;;;;;;5111399;27;20035;-83
2022/01/14 13:02:20;;;;;;;17.80;2.40;;;8.10;99.90;;;;;;5094980;27;20043;-83
2022/01/14 13:04:58;;;;;;;20.55;2.53;;;8.10;99.90;;;;;;5109801;27;20047;-82
2022/01/14 13:07:27;;;;;;;15.93;2.72;;;8.10;99.90;;;;;;5095746;27;20496;-83
2022/01/14 13:09:53;;;;;;;21.92;2.55;;;8.10;99.90;;;;;;5110538;27;20071;-83
2022/01/14 13:12:22;;;;;;;19.10;2.53;;;8.10;99.90;;;;;;5129915;27;20035;-84
2022/01/14 13:14:57;;;;;;;15.63;2.65;;;8.10;99.90;;;;;;5129858;27;20058;-83
2022/01/14 13:18:08;;;;;;;16.98;3.08;;;8.10;99.90;;;;;;5128519;27;20131;-84
2022/01/14 13:20:34;;;;;;;14.90;2.53;;;8.10;99.90;;;;;;5130138;27;20051;-83
2022/01/14 13:23:00;;;;;;;17.13;2.70;;;8.10;99.90;;;;;;5093500;27;20176;-83
2022/01/14 13:25:30;;;;;;;19.98;2.55;;;9.00;99.90;;;;;;5093423;27;20047;-83
2022/01/14 13:28:02;;;;;;;21.50;3.22;;;8.20;99.90;;;;;;5111477;27;20050;-83